Time;durP1;ratioP1;P1;durP2;ratioP2;P2;SDS_P1;SDS_P2;PMS_P1;PMS_P2;Temp;Humidity;BMP_temperature;BMP_pressure;BME280_temperature;BME280_humidity;BME280_pressure;Samples;Min_cycle;Max_cycle;Signal;HPM_P1;HPM_P2
2022/01/26 00:00:04;;;;;;;29.67;6.90;;;;;;;4.57;100.00;99293.22;5093734;28;21109;-74
2022/01/26 00:08:02;;;;;;;64.97;10.03;;;;;;;4.69;100.00;99290.88;5103065;28;20609;-74
2022/01/26 00:10:30;;;;;;;38.67;9.87;;;;;;;4.75;100.00;99288.28;5103420;28;21144;-74
2022/01/26 00:12:57;;;;;;;48.93;9.60;;;;;;;4.86;100.00;99289.56;5099742;28;20610;-74
2022/01/26 00:15:24;;;;;;;48.90;9.07;;;;;;;4.82;100.00;99293.63;5099342;28;20612;-74
2022/01/26 00:17:52;;;;;;;29.80;10.57;;;;;;;4.95;100.00;99293.75;5110235;28;20617;-74
2022/01/26 00:20:25;;;;;;;48.13;8.80;;;;;;;4.94;100.00;99291.25;5102425;28;20601;-74
2022/01/26 00:23:03;;;;;;;57.57;9.20;;;;;;;4.93;100.00;99287.78;5109828;28;20637;-74
2022/01/26 00:25:40;;;;;;;29.20;8.40;;;;;;;4.95;100.00;99291.09;5105293;28;21229;-74
2022/01/26 00:28:30;;;;;;;31.43;8.93;;;;;;;4.95;100.00;99295.56;5094317;28;20662;-74
2022/01/26 00:39:26;;;;;;;66.53;10.20;;;;;;;4.98;100.00;99287.22;5109631;28;20585;-74
2022/01/26 00:41:57;;;;;;;33.57;8.57;;;;;;;4.77;100.00;99280.13;5113009;28;20605;-74
2022/01/26 00:44:30;;;;;;;83.60;11.57;;;;;;;4.66;100.00;99283.31;5104573;28;20629;-74
2022/01/26 00:46:58;;;;;;;55.90;9.30;;;;;;;4.58;100.00;99273.69;5109385;28;20618;-74
2022/01/26 00:49:25;;;;;;;47.50;7.73;;;;;;;4.78;100.00;99277.31;5110741;28;20622;-75
2022/01/26 00:51:54;;;;;;;73.17;9.93;;;;;;;4.89;100.00;99278.59;5104579;28;20601;-74
2022/01/26 00:54:21;;;;;;;32.70;7.30;;;;;;;4.76;100.00;99278.53;5102404;28;20593;-74
2022/01/26 00:56:47;;;;;;;30.33;7.10;;;;;;;4.75;100.00;99274.22;5104279;28;20608;-74
2022/01/26 00:59:14;;;;;;;43.63;8.53;;;;;;;4.84;100.00;99275.72;5104146;28;20620;-74
2022/01/26 01:01:41;;;;;;;35.97;7.60;;;;;;;4.77;100.00;99274.84;5106832;28;20605;-75
2022/01/26 01:04:08;;;;;;;27.33;5.93;;;;;;;4.82;100.00;99272.47;5110505;28;20643;-74
2022/01/26 01:06:42;;;;;;;27.50;6.53;;;;;;;4.81;100.00;99268.16;5110499;28;20603;-74
2022/01/26 01:09:11;;;;;;;22.27;6.00;;;;;;;4.86;100.00;99268.41;5108985;28;20593;-74
2022/01/26 01:11:40;;;;;;;27.97;7.40;;;;;;;4.75;100.00;99266.28;5113878;28;20601;-74
2022/01/26 01:14:08;;;;;;;27.37;5.97;;;;;;;4.78;100.00;99272.03;5108336;28;20624;-74
2022/01/26 01:16:45;;;;;;;36.30;7.97;;;;;;;4.53;100.00;99262.03;5109033;28;20601;-74
2022/01/26 01:19:29;;;;;;;29.63;8.17;;;;;;;4.57;100.00;99263.31;5112500;28;20609;-74
2022/01/26 01:22:24;;;;;;;48.97;8.27;;;;;;;4.76;100.00;99268.75;5096155;28;20592;-74
2022/01/26 01:27:56;;;;;;;25.17;6.83;;;;;;;4.74;100.00;99249.59;5101573;28;20609;-74
2022/01/26 01:30:29;;;;;;;64.07;8.00;;;;;;;4.82;100.00;99259.22;5106542;28;20592;-74
2022/01/26 01:33:05;;;;;;;61.40;9.03;;;;;;;4.90;100.00;99259.06;5106880;28;20615;-74
2022/01/26 01:35:35;;;;;;;34.10;6.47;;;;;;;4.84;100.00;99254.53;5106091;28;20584;-74
2022/01/26 01:38:09;;;;;;;57.00;8.73;;;;;;;4.94;100.00;99275.38;5102403;28;20601;-74
2022/01/26 01:40:38;;;;;;;30.93;6.17;;;;;;;4.67;100.00;99269.09;5103644;28;20609;-74
2022/01/26 01:43:06;;;;;;;36.13;7.23;;;;;;;4.75;100.00;99276.88;5109312;28;20612;-74
2022/01/26 01:45:34;;;;;;;16.90;5.83;;;;;;;4.85;100.00;99272.06;5102039;28;20630;-74
2022/01/26 01:48:01;;;;;;;72.97;9.70;;;;;;;4.92;100.00;99282.72;5101737;28;20628;-74
2022/01/26 01:50:28;;;;;;;47.77;8.07;;;;;;;4.97;100.00;99275.00;5101640;28;20638;-74
2022/01/26 01:53:00;;;;;;;55.60;8.13;;;;;;;4.98;100.00;99277.47;5112170;28;20607;-74
2022/01/26 01:55:28;;;;;;;33.07;7.40;;;;;;;4.83;100.00;99266.13;5105175;28;20629;-74
2022/01/26 01:57:57;;;;;;;44.50;9.50;;;;;;;4.93;100.00;99258.69;5097128;28;21264;-74
2022/01/26 02:00:24;;;;;;;33.37;7.80;;;;;;;4.86;100.00;99260.44;5092814;28;20601;-74
2022/01/26 02:02:51;;;;;;;43.67;8.77;;;;;;;4.90;100.00;99272.31;5104469;28;20604;-74
2022/01/26 02:05:18;;;;;;;44.17;9.83;;;;;;;4.84;100.00;99254.53;5105440;28;20611;-74
2022/01/26 02:07:45;;;;;;;56.23;8.93;;;;;;;4.94;100.00;99254.19;5102087;28;20601;-74
2022/01/26 02:10:12;;;;;;;41.07;7.80;;;;;;;4.93;100.00;99253.38;5101587;28;20593;-74
2022/01/26 02:12:44;;;;;;;62.97;10.70;;;;;;;4.95;100.00;99250.56;5102227;28;20623;-74
2022/01/26 02:15:17;;;;;;;49.03;9.33;;;;;;;4.98;100.00;99250.16;5104168;28;20612;-74
2022/01/26 02:21:09;;;;;;;54.87;9.87;;;;;;;4.85;100.00;99253.53;5047079;28;21432;-74
2022/01/26 02:56:51;;;;;;;42.53;8.83;;;;;;;4.82;100.00;99227.47;5078333;28;20659;-74
2022/01/26 02:59:46;;;;;;;49.70;8.30;;;;;;;4.91;100.00;99228.94;5099879;28;20643;-74
2022/01/26 03:02:24;;;;;;;59.33;10.03;;;;;;;4.92;100.00;99235.06;5093096;28;20687;-74
2022/01/26 03:04:53;;;;;;;57.17;8.93;;;;;;;4.92;100.00;99235.84;5091305;28;20636;-74
2022/01/26 03:07:34;;;;;;;62.13;9.33;;;;;;;4.83;100.00;99232.53;5099803;28;20643;-74
2022/01/26 03:10:06;;;;;;;34.90;8.27;;;;;;;4.96;100.00;99241.59;5095330;28;20623;-74
2022/01/26 03:12:41;;;;;;;63.03;10.17;;;;;;;4.99;100.00;99239.38;5103095;28;20601;-74
2022/01/26 03:15:14;;;;;;;69.93;9.77;;;;;;;4.91;100.00;99242.19;5099677;28;20703;-74
2022/01/26 03:17:56;;;;;;;53.47;9.10;;;;;;;4.98;100.00;99243.06;5104732;28;20602;-74
2022/01/26 03:20:23;;;;;;;36.67;9.40;;;;;;;5.02;100.00;99240.81;5100319;28;20636;-74
2022/01/26 03:28:21;;;;;;;62.10;10.10;;;;;;;4.93;100.00;99232.19;5102061;28;20609;-74
2022/01/26 03:31:13;;;;;;;41.17;9.30;;;;;;;4.84;100.00;99238.66;5100426;28;20596;-74
2022/01/26 03:33:54;;;;;;;61.37;9.73;;;;;;;4.89;100.00;99233.59;5100360;28;20625;-74
2022/01/26 03:36:21;;;;;;;44.30;8.70;;;;;;;4.47;100.00;99225.78;5103159;28;20638;-74
2022/01/26 03:38:56;;;;;;;41.07;9.37;;;;;;;4.43;100.00;99232.44;5100640;28;20609;-74
2022/01/26 03:41:34;;;;;;;31.03;8.00;;;;;;;4.59;100.00;99218.94;5102011;28;20958;-74
2022/01/26 03:44:00;;;;;;;42.00;9.97;;;;;;;4.67;100.00;99224.09;5103102;28;20620;-74
2022/01/26 03:46:27;;;;;;;30.70;7.83;;;;;;;4.71;100.00;99217.41;5102862;28;20891;-72
2022/01/26 03:48:54;;;;;;;58.47;10.40;;;;;;;4.77;100.00;99212.16;5099151;28;20601;-72
2022/01/26 03:51:20;;;;;;;55.73;9.67;;;;;;;4.74;100.00;99211.72;5099051;28;21180;-72
2022/01/26 03:53:47;;;;;;;40.43;8.57;;;;;;;4.81;100.00;99216.06;5105355;28;21150;-72
2022/01/26 03:56:14;;;;;;;59.83;9.87;;;;;;;4.78;100.00;99212.97;5097066;28;20600;-72
2022/01/26 03:58:42;;;;;;;44.87;9.80;;;;;;;4.54;100.00;99221.34;5101034;28;20654;-72
2022/01/26 04:01:09;;;;;;;76.03;10.90;;;;;;;4.58;100.00;99226.06;5098806;28;20612;-72
2022/01/26 04:03:35;;;;;;;52.03;9.73;;;;;;;4.66;100.00;99219.81;5099298;28;20639;-72
2022/01/26 04:06:02;;;;;;;51.50;9.83;;;;;;;4.70;100.00;99216.59;5102207;28;20623;-72
2022/01/26 04:08:31;;;;;;;34.20;8.53;;;;;;;4.69;100.00;99224.72;5102290;28;20634;-72
2022/01/26 04:11:09;;;;;;;36.20;8.00;;;;;;;4.80;100.00;99210.94;5102832;28;20609;-72
2022/01/26 04:13:36;;;;;;;37.03;9.53;;;;;;;4.72;100.00;99211.09;5101476;28;20614;-72
2022/01/26 04:16:05;;;;;;;48.37;9.67;;;;;;;4.75;100.00;99210.72;5098656;28;20609;-72
2022/01/26 04:18:35;;;;;;;48.87;10.37;;;;;;;4.75;100.00;99214.19;5098614;28;20917;-72
2022/01/26 04:21:08;;;;;;;25.77;8.67;;;;;;;4.72;100.00;99209.28;5097947;28;20659;-72
2022/01/26 04:23:42;;;;;;;64.80;10.83;;;;;;;4.84;100.00;99206.91;5098601;28;20597;-72
2022/01/26 04:26:10;;;;;;;29.67;9.47;;;;;;;4.91;100.00;99221.00;5094634;28;21103;-72
2022/01/26 04:28:42;;;;;;;28.30;8.93;;;;;;;4.79;100.00;99210.16;5101757;28;20593;-72
2022/01/26 04:31:10;;;;;;;59.80;9.97;;;;;;;4.83;100.00;99207.91;5098870;28;20609;-72
2022/01/26 04:33:37;;;;;;;68.10;12.67;;;;;;;4.77;100.00;99204.22;5104302;28;20616;-72
2022/01/26 04:36:08;;;;;;;41.87;9.80;;;;;;;4.55;100.00;99210.56;5101020;28;20593;-72
2022/01/26 04:38:36;;;;;;;53.43;10.50;;;;;;;4.69;100.00;99200.91;5101290;28;20616;-72
2022/01/26 04:41:25;;;;;;;51.90;11.77;;;;;;;4.81;100.00;99202.00;5098727;28;20627;-72
2022/01/26 04:43:54;;;;;;;43.23;9.70;;;;;;;4.84;100.00;99207.72;5101078;28;20810;-72
2022/01/26 04:46:24;;;;;;;51.77;12.47;;;;;;;4.79;100.00;99201.38;5101748;28;20616;-72
2022/01/26 04:48:51;;;;;;;44.37;11.57;;;;;;;4.57;100.00;99213.03;5099399;28;20596;-72
2022/01/26 04:51:17;;;;;;;54.97;12.43;;;;;;;4.56;100.00;99208.75;5098312;28;20593;-72
2022/01/26 04:53:44;;;;;;;68.73;12.70;;;;;;;4.62;100.00;99213.25;5104425;28;20605;-72
2022/01/26 04:56:13;;;;;;;32.43;9.27;;;;;;;4.76;100.00;99199.13;5094507;28;21177;-72
2022/01/26 04:58:40;;;;;;;46.57;9.50;;;;;;;4.95;100.00;99198.44;5108314;28;21029;-72
2022/01/26 05:01:06;;;;;;;43.97;11.23;;;;;;;5.01;100.00;99202.94;5097137;28;20655;-72
2022/01/26 05:03:34;;;;;;;71.43;11.37;;;;;;;5.06;100.00;99194.41;5102470;28;20608;-72
2022/01/26 05:06:01;;;;;;;42.93;10.83;;;;;;;5.08;100.00;99195.00;5098411;28;20635;-72
2022/01/26 05:08:28;;;;;;;32.73;9.40;;;;;;;5.10;100.00;99201.75;5101801;28;20602;-72
2022/01/26 05:10:54;;;;;;;38.23;10.17;;;;;;;4.97;100.00;99201.69;5104601;28;20618;-72
2022/01/26 05:13:21;;;;;;;49.70;11.20;;;;;;;4.47;100.00;99200.16;5104682;28;20604;-72
2022/01/26 05:15:48;;;;;;;42.20;12.40;;;;;;;4.28;100.00;99201.63;5101326;28;20619;-72
2022/01/26 05:18:14;;;;;;;38.67;9.87;;;;;;;4.24;100.00;99203.00;5102032;28;20602;-72
2022/01/26 05:20:42;;;;;;;35.70;10.83;;;;;;;4.13;100.00;99208.81;5103231;28;20613;-72
2022/01/26 05:23:09;;;;;;;60.10;10.20;;;;;;;4.04;100.00;99209.13;5104442;28;20605;-72
2022/01/26 05:25:36;;;;;;;51.87;11.07;;;;;;;4.07;100.00;99214.88;5094376;28;20589;-72
2022/01/26 05:28:03;;;;;;;52.67;11.20;;;;;;;3.95;100.00;99205.81;5101999;28;20612;-72
2022/01/26 05:30:30;;;;;;;52.93;10.80;;;;;;;4.13;100.00;99206.19;5102101;28;20592;-71
2022/01/26 05:32:56;;;;;;;38.20;10.70;;;;;;;4.08;100.00;99198.00;5100426;28;20605;-71
2022/01/26 05:35:23;;;;;;;65.60;11.83;;;;;;;4.25;100.00;99196.72;5101853;28;20618;-72
2022/01/26 05:37:51;;;;;;;44.03;9.70;;;;;;;4.48;100.00;99206.25;5102469;28;20617;-72
2022/01/26 05:40:18;;;;;;;37.37;9.97;;;;;;;4.60;100.00;99207.34;5103645;28;20589;-71
2022/01/26 05:42:44;;;;;;;43.73;10.70;;;;;;;4.75;100.00;99208.88;5105892;28;20582;-72
2022/01/26 05:45:21;;;;;;;36.90;10.10;;;;;;;4.84;100.00;99201.59;5106786;28;20622;-71
2022/01/26 05:47:48;;;;;;;44.77;11.77;;;;;;;4.94;100.00;99195.97;5105880;28;20604;-72
2022/01/26 05:50:15;;;;;;;43.90;11.10;;;;;;;4.99;100.00;99199.66;5103728;28;20659;-71
2022/01/26 05:52:41;;;;;;;52.50;10.83;;;;;;;5.02;100.00;99193.16;5104811;28;20597;-72
2022/01/26 05:55:10;;;;;;;48.47;10.23;;;;;;;4.79;100.00;99193.44;5101375;28;20605;-72
2022/01/26 05:57:36;;;;;;;60.90;12.07;;;;;;;4.98;100.00;99200.69;5103317;28;20597;-72
2022/01/26 06:00:05;;;;;;;66.03;12.97;;;;;;;4.97;100.00;99200.88;5106572;28;20601;-72
2022/01/26 06:02:33;;;;;;;46.13;11.17;;;;;;;4.94;100.00;99206.56;5105462;28;20589;-72
2022/01/26 06:05:00;;;;;;;75.10;11.97;;;;;;;5.02;100.00;99193.97;5101850;28;20625;-72
2022/01/26 06:07:27;;;;;;;48.47;9.93;;;;;;;5.06;100.00;99197.03;5102281;28;20605;-72
2022/01/26 06:09:53;;;;;;;58.43;11.33;;;;;;;4.97;100.00;99193.75;5108445;28;20605;-72
2022/01/26 06:12:21;;;;;;;46.17;10.20;;;;;;;4.96;100.00;99189.47;5099293;28;20622;-72
2022/01/26 06:14:48;;;;;;;63.20;11.27;;;;;;;4.97;100.00;99177.88;5102217;28;20612;-71
2022/01/26 06:17:15;;;;;;;68.27;11.67;;;;;;;5.05;100.00;99176.88;5101068;28;20623;-72
2022/01/26 06:19:41;;;;;;;84.60;12.87;;;;;;;5.10;100.00;99175.28;5107676;28;20621;-72
2022/01/26 06:22:08;;;;;;;64.57;12.70;;;;;;;5.07;100.00;99177.50;5104254;28;20603;-72
2022/01/26 06:24:35;;;;;;;119.73;14.47;;;;;;;5.08;100.00;99176.47;5109268;28;20604;-72
2022/01/26 06:27:02;;;;;;;54.07;11.30;;;;;;;4.97;100.00;99182.34;5100630;28;20624;-72
2022/01/26 06:29:30;;;;;;;54.77;10.43;;;;;;;4.68;100.00;99180.75;5100557;28;20601;-72
2022/01/26 06:31:57;;;;;;;60.83;11.67;;;;;;;4.71;100.00;99189.13;5099176;28;20602;-72
2022/01/26 06:34:24;;;;;;;39.97;11.17;;;;;;;4.84;100.00;99191.03;5099504;28;20818;-72
2022/01/26 06:36:51;;;;;;;63.60;12.87;;;;;;;4.93;100.00;99186.38;5108305;28;20596;-72
2022/01/26 06:39:18;;;;;;;36.60;10.53;;;;;;;5.02;100.00;99196.63;5100738;28;20607;-72
2022/01/26 06:41:50;;;;;;;58.60;12.60;;;;;;;5.06;100.00;99195.22;5102272;28;20601;-72
2022/01/26 06:44:22;;;;;;;49.47;12.67;;;;;;;5.05;100.00;99190.94;5103321;28;20656;-72
2022/01/26 06:47:00;;;;;;;60.80;13.43;;;;;;;5.08;100.00;99187.06;5101634;28;20647;-72
2022/01/26 06:49:29;;;;;;;50.03;12.20;;;;;;;5.06;100.00;99191.75;5103515;28;20636;-72
2022/01/26 06:51:57;;;;;;;42.40;11.27;;;;;;;5.04;100.00;99197.25;5095750;28;20616;-72
2022/01/26 06:54:24;;;;;;;67.17;12.00;;;;;;;4.87;100.00;99195.94;5103895;28;20602;-73
2022/01/26 06:56:52;;;;;;;46.40;13.07;;;;;;;4.90;100.00;99185.78;5103439;28;21037;-72
2022/01/26 06:59:18;;;;;;;52.83;12.60;;;;;;;5.02;100.00;99183.38;5103581;28;20605;-72
2022/01/26 07:01:45;;;;;;;54.07;11.97;;;;;;;5.03;100.00;99178.91;5102215;28;20604;-72
2022/01/26 07:04:13;;;;;;;30.07;9.47;;;;;;;5.10;100.00;99188.53;5100434;28;20642;-72
2022/01/26 07:06:40;;;;;;;36.07;11.10;;;;;;;5.10;100.00;99179.75;5102237;28;20613;-73
2022/01/26 07:09:07;;;;;;;52.80;14.30;;;;;;;4.97;100.00;99191.09;5106577;28;20675;-73
2022/01/26 07:11:34;;;;;;;63.33;12.87;;;;;;;4.94;100.00;99191.50;5100490;28;20604;-72
2022/01/26 07:14:03;;;;;;;45.40;12.53;;;;;;;5.09;100.00;99183.41;5100886;28;20609;-72
2022/01/26 07:22:03;;;;;;;33.83;8.90;;;;;;;5.02;100.00;99193.16;5091899;28;20606;-72
2022/01/26 07:24:29;;;;;;;34.97;10.67;;;;;;;4.92;100.00;99190.84;5098179;28;20901;-72
2022/01/26 07:26:56;;;;;;;42.43;11.80;;;;;;;4.97;100.00;99191.09;5100192;28;20602;-72
2022/01/26 07:29:24;;;;;;;69.27;12.37;;;;;;;4.95;100.00;99193.13;5099742;28;20627;-72
2022/01/26 07:31:51;;;;;;;41.63;10.70;;;;;;;4.74;100.00;99190.53;5101796;28;20598;-72
2022/01/26 07:34:23;;;;;;;43.93;11.83;;;;;;;4.61;100.00;99185.97;5102877;28;20604;-72
2022/01/26 07:36:53;;;;;;;66.23;11.10;;;;;;;4.60;100.00;99202.06;5100574;28;20595;-73
2022/01/26 07:39:30;;;;;;;57.93;11.37;;;;;;;4.76;100.00;99193.84;5101565;28;20598;-72
2022/01/26 07:41:57;;;;;;;60.00;12.00;;;;;;;4.83;100.00;99195.50;5089481;28;20617;-72
2022/01/26 07:44:26;;;;;;;61.23;11.63;;;;;;;4.93;100.00;99189.84;5091039;28;20606;-71
2022/01/26 07:46:52;;;;;;;33.13;9.30;;;;;;;4.94;100.00;99186.19;5102560;28;20597;-72
2022/01/26 07:49:20;;;;;;;43.03;10.43;;;;;;;5.06;100.00;99189.91;5102772;28;20600;-73
2022/01/26 07:51:50;;;;;;;60.17;12.07;;;;;;;5.09;100.00;99180.75;5107540;28;21002;-72
2022/01/26 07:54:18;;;;;;;51.33;10.60;;;;;;;5.13;100.00;99187.31;5098920;28;20613;-72
2022/01/26 07:56:46;;;;;;;63.23;12.53;;;;;;;5.08;100.00;99190.53;5099052;28;20600;-72
2022/01/26 07:59:12;;;;;;;51.47;10.60;;;;;;;5.04;100.00;99191.97;5098678;28;20597;-72
2022/01/26 08:01:39;;;;;;;51.23;11.47;;;;;;;4.97;100.00;99193.75;5099439;28;20594;-72
2022/01/26 08:04:06;;;;;;;28.63;10.40;;;;;;;4.87;100.00;99187.97;5108823;28;20632;-72
2022/01/26 08:06:34;;;;;;;64.00;9.90;;;;;;;4.94;100.00;99191.50;5101708;28;20604;-72
2022/01/26 08:09:01;;;;;;;45.30;10.90;;;;;;;5.06;100.00;99186.47;5098653;28;20613;-72
2022/01/26 08:11:28;;;;;;;36.47;9.73;;;;;;;5.11;100.00;99189.31;5098416;28;20602;-72
2022/01/26 08:13:54;;;;;;;54.40;12.30;;;;;;;4.89;100.00;99180.66;5101630;28;21459;-72
2022/01/26 08:16:21;;;;;;;45.73;11.13;;;;;;;4.87;100.00;99180.88;5108852;28;20825;-72
2022/01/26 08:18:48;;;;;;;77.37;12.87;;;;;;;5.00;100.00;99195.19;5099239;28;20608;-72
2022/01/26 08:21:15;;;;;;;54.87;10.40;;;;;;;5.09;100.00;99200.13;5098303;28;20667;-72
2022/01/26 08:23:44;;;;;;;40.87;10.97;;;;;;;5.14;100.00;99213.56;5103401;28;21197;-72
2022/01/26 08:26:11;;;;;;;65.93;10.33;;;;;;;5.11;100.00;99210.50;5095441;28;21270;-72
2022/01/26 08:28:40;;;;;;;53.73;11.50;;;;;;;5.00;100.00;99205.78;5100315;28;20602;-72
2022/01/26 08:31:07;;;;;;;63.93;13.50;;;;;;;4.80;100.00;99197.72;5101665;28;20616;-72
2022/01/26 08:33:34;;;;;;;54.80;11.43;;;;;;;5.01;100.00;99205.59;5108096;28;20600;-72
2022/01/26 08:36:01;;;;;;;53.37;9.97;;;;;;;4.96;100.00;99193.94;5098011;28;20647;-72
2022/01/26 08:38:43;;;;;;;42.03;10.10;;;;;;;5.10;100.00;99188.53;5097333;28;20608;-72
2022/01/26 08:41:11;;;;;;;63.20;11.40;;;;;;;5.14;100.00;99195.03;5103547;28;20588;-72
2022/01/26 08:43:38;;;;;;;45.87;9.33;;;;;;;5.20;100.00;99191.59;5100800;28;21144;-72
2022/01/26 08:46:05;;;;;;;31.83;10.57;;;;;;;5.00;100.00;99201.31;5098266;28;20632;-72
2022/01/26 08:48:32;;;;;;;59.50;10.97;;;;;;;4.66;100.00;99193.34;5097906;28;20616;-72
2022/01/26 08:50:58;;;;;;;75.83;13.70;;;;;;;5.05;100.00;99193.56;5096662;28;20606;-71
2022/01/26 08:53:25;;;;;;;43.73;10.97;;;;;;;5.07;100.00;99196.03;5103688;28;20600;-73
2022/01/26 08:55:52;;;;;;;51.47;10.80;;;;;;;5.14;100.00;99205.63;5093345;28;20720;-72
2022/01/26 08:58:20;;;;;;;40.23;10.10;;;;;;;5.18;100.00;99206.88;5102129;28;20628;-73
2022/01/26 09:00:47;;;;;;;43.53;10.60;;;;;;;5.14;100.00;99204.81;5098007;28;20584;-72
2022/01/26 09:03:14;;;;;;;54.07;10.30;;;;;;;4.74;100.00;99199.31;5099041;28;20631;-72
2022/01/26 09:05:41;;;;;;;45.37;11.37;;;;;;;5.03;100.00;99211.50;5099104;28;20605;-72
2022/01/26 09:08:08;;;;;;;44.50;11.90;;;;;;;5.10;100.00;99208.88;5104919;28;20599;-72
2022/01/26 09:10:37;;;;;;;40.27;10.90;;;;;;;5.09;100.00;99209.88;5104361;28;20613;-72
2022/01/26 09:13:03;;;;;;;48.93;11.17;;;;;;;5.14;100.00;99207.47;5105320;28;20616;-72
2022/01/26 09:15:32;;;;;;;52.33;12.40;;;;;;;4.97;100.00;99211.47;5105147;28;20589;-72
2022/01/26 09:18:03;;;;;;;65.57;11.83;;;;;;;5.04;100.00;99213.16;5092672;28;21277;-72
2022/01/26 09:20:31;;;;;;;80.37;12.27;;;;;;;4.84;100.00;99228.91;5100940;28;20604;-72
2022/01/26 09:22:57;;;;;;;32.27;9.30;;;;;;;4.62;100.00;99234.44;5103607;28;20609;-72
2022/01/26 09:25:24;;;;;;;35.93;10.10;;;;;;;4.42;100.00;99220.25;5097939;28;20648;-72
2022/01/26 09:27:51;;;;;;;68.27;11.50;;;;;;;4.21;100.00;99224.53;5104190;28;20618;-72
2022/01/26 09:30:18;;;;;;;42.30;10.40;;;;;;;4.13;100.00;99213.28;5105188;28;20604;-72
2022/01/26 09:32:46;;;;;;;122.13;14.30;;;;;;;4.39;100.00;99215.34;5103092;28;20592;-73
2022/01/26 09:35:13;;;;;;;56.13;11.80;;;;;;;4.40;100.00;99227.53;5101095;28;21359;-73
2022/01/26 09:37:41;;;;;;;76.17;12.50;;;;;;;4.47;100.00;99228.41;5102783;28;20655;-73
2022/01/26 09:40:09;;;;;;;69.87;11.70;;;;;;;4.71;100.00;99231.44;5112235;28;20600;-72
2022/01/26 09:42:37;;;;;;;58.40;11.07;;;;;;;4.69;100.00;99220.25;5105921;28;20596;-73
2022/01/26 09:45:05;;;;;;;53.33;10.07;;;;;;;4.80;100.00;99218.88;5104135;28;20668;-73
2022/01/26 09:47:32;;;;;;;42.97;10.13;;;;;;;4.84;100.00;99213.03;5103666;28;20613;-73
2022/01/26 09:50:02;;;;;;;46.00;9.67;;;;;;;4.96;100.00;99200.03;5103154;28;20596;-73
2022/01/26 09:52:34;;;;;;;53.10;10.80;;;;;;;5.08;100.00;99221.47;5106921;28;20597;-73
2022/01/26 09:55:01;;;;;;;33.70;9.30;;;;;;;4.75;100.00;99213.38;5099779;28;20627;-73
2022/01/26 09:57:29;;;;;;;39.47;9.70;;;;;;;4.77;100.00;99200.75;5100350;28;20589;-72
2022/01/26 09:59:57;;;;;;;60.83;12.53;;;;;;;5.01;100.00;99210.88;5110476;28;20620;-75
2022/01/26 10:02:27;;;;;;;68.03;11.93;;;;;;;5.09;100.00;99210.72;5103805;28;20608;-75
2022/01/26 10:05:01;;;;;;;35.03;10.10;;;;;;;5.17;100.00;99215.84;5107757;28;20626;-75
2022/01/26 10:07:42;;;;;;;45.03;10.83;;;;;;;5.19;100.00;99216.47;5107031;28;20612;-75
2022/01/26 10:10:34;;;;;;;25.27;7.73;;;;;;;5.18;100.00;99209.53;5109392;28;20619;-75
2022/01/26 10:16:04;;;;;;;44.60;11.20;;;;;;;4.97;100.00;99196.41;5105296;28;20597;-75
2022/01/26 10:18:32;;;;;;;43.33;10.67;;;;;;;5.03;100.00;99200.91;5104440;28;21086;-75
2022/01/26 10:21:01;;;;;;;51.87;10.60;;;;;;;5.08;100.00;99201.13;5096311;28;20592;-75
2022/01/26 10:23:37;;;;;;;64.07;10.10;;;;;;;5.16;100.00;99202.81;5112181;28;20674;-75
2022/01/26 10:26:05;;;;;;;60.47;11.87;;;;;;;5.31;100.00;99191.06;5110458;28;20839;-75
2022/01/26 10:28:44;;;;;;;63.10;12.70;;;;;;;5.42;100.00;99189.66;5117397;28;20670;-76
2022/01/26 10:31:17;;;;;;;47.43;11.63;;;;;;;5.40;100.00;99187.22;5105684;28;20620;-75
2022/01/26 10:33:55;;;;;;;64.73;14.30;;;;;;;5.55;100.00;99183.59;5105973;28;20589;-75
2022/01/26 10:36:22;;;;;;;46.10;11.43;;;;;;;5.45;100.00;99195.38;5116210;28;20623;-75
2022/01/26 10:38:59;;;;;;;86.33;13.77;;;;;;;5.25;100.00;99183.91;5113309;28;20620;-75
2022/01/26 10:41:26;;;;;;;67.27;11.67;;;;;;;4.97;100.00;99185.81;5106850;28;20617;-74
2022/01/26 10:43:55;;;;;;;48.20;12.87;;;;;;;5.20;100.00;99169.63;5106694;28;20604;-75
2022/01/26 10:46:30;;;;;;;36.90;9.17;;;;;;;5.36;100.00;99175.38;5104107;28;20600;-75
2022/01/26 10:49:08;;;;;;;48.67;12.93;;;;;;;5.16;100.00;99174.50;5100281;28;20616;-75
2022/01/26 10:51:51;;;;;;;37.00;9.73;;;;;;;5.27;100.00;99167.78;5104998;28;20590;-75
2022/01/26 10:54:23;;;;;;;68.83;11.87;;;;;;;5.15;100.00;99175.50;5099908;28;20597;-75
2022/01/26 10:56:51;;;;;;;57.37;13.17;;;;;;;5.17;100.00;99162.88;5098534;28;20632;-75
2022/01/26 10:59:18;;;;;;;72.67;10.73;;;;;;;5.25;100.00;99161.91;5097420;28;20620;-75
2022/01/26 11:01:45;;;;;;;45.00;9.97;;;;;;;5.18;100.00;99171.63;5109458;28;20623;-75
2022/01/26 11:04:12;;;;;;;43.60;10.07;;;;;;;5.24;100.00;99171.66;5100959;28;21003;-75
2022/01/26 11:06:43;;;;;;;46.90;9.40;;;;;;;5.16;100.00;99169.19;5100967;28;20597;-75
2022/01/26 11:09:13;;;;;;;69.53;10.80;;;;;;;5.26;100.00;99176.78;5103419;28;20627;-75
2022/01/26 11:11:41;;;;;;;42.53;9.23;;;;;;;5.06;100.00;99178.50;5102356;28;20609;-75
2022/01/26 11:14:16;;;;;;;38.83;7.90;;;;;;;5.08;100.00;99174.66;5105841;28;20644;-75
2022/01/26 11:16:51;;;;;;;51.03;9.30;;;;;;;5.28;100.00;99177.38;5115989;28;20615;-75
2022/01/26 11:19:18;;;;;;;56.10;10.37;;;;;;;5.33;100.00;99180.25;5100202;28;21099;-75
2022/01/26 11:21:45;;;;;;;29.47;7.70;;;;;;;5.20;100.00;99170.41;5101905;28;20671;-75
2022/01/26 11:24:19;;;;;;;36.40;7.97;;;;;;;5.37;100.00;99177.03;5103366;28;20606;-75
2022/01/26 11:26:49;;;;;;;49.17;8.67;;;;;;;5.32;100.00;99168.03;5099513;28;20604;-74
2022/01/26 11:29:20;;;;;;;44.47;9.13;;;;;;;5.37;100.00;99170.91;5099145;28;20605;-74
2022/01/26 11:31:47;;;;;;;36.10;8.33;;;;;;;5.27;100.00;99170.44;5107085;28;20647;-75
2022/01/26 11:34:18;;;;;;;49.20;9.47;;;;;;;5.34;100.00;99166.81;5102993;28;20665;-74
2022/01/26 11:36:48;;;;;;;40.60;10.43;;;;;;;5.27;100.00;99159.84;5102207;28;20620;-75
2022/01/26 11:42:18;;;;;;;34.63;8.77;;;;;;;5.21;100.00;99177.34;5098212;28;20602;-74
2022/01/26 11:45:05;;;;;;;35.03;6.77;;;;;;;5.19;100.00;99182.06;5104649;28;20613;-74
2022/01/26 11:47:32;;;;;;;44.87;9.93;;;;;;;5.24;100.00;99182.25;5099154;28;20632;-75
2022/01/26 11:50:06;;;;;;;49.13;9.40;;;;;;;5.20;100.00;99170.41;5102255;28;20609;-75
2022/01/26 11:52:37;;;;;;;55.43;10.63;;;;;;;5.20;100.00;99170.41;5103427;28;20623;-75
2022/01/26 11:55:10;;;;;;;43.10;8.40;;;;;;;5.03;100.00;99163.03;5097220;28;20598;-74
2022/01/26 11:57:44;;;;;;;53.73;9.47;;;;;;;5.04;100.00;99156.72;5099643;28;20617;-75
2022/01/26 12:00:17;;;;;;;38.80;9.67;;;;;;;4.88;100.00;99157.88;5102354;28;20608;-75
2022/01/26 12:02:53;;;;;;;64.20;11.00;;;;;;;4.79;100.00;99146.63;5099465;28;20615;-75
2022/01/26 12:05:23;;;;;;;57.57;11.00;;;;;;;4.92;100.00;99151.16;5098612;28;20624;-75
2022/01/26 12:07:51;;;;;;;79.03;13.13;;;;;;;4.83;100.00;99154.97;5106994;28;20610;-75
2022/01/26 12:10:26;;;;;;;59.20;10.63;;;;;;;4.71;100.00;99152.06;5101810;28;20584;-75
2022/01/26 12:13:06;;;;;;;58.87;10.30;;;;;;;4.83;100.00;99134.63;5099061;28;20609;-75
2022/01/26 12:15:42;;;;;;;50.77;9.73;;;;;;;4.88;100.00;99155.22;5098629;28;20600;-74
2022/01/26 12:18:21;;;;;;;63.50;13.40;;;;;;;4.99;100.00;99137.94;5101934;28;20706;-74
2022/01/26 12:32:26;;;;;;;61.70;11.47;;;;;;;5.01;100.00;99123.53;5089676;28;20616;-74
2022/01/26 12:35:01;;;;;;;83.03;13.50;;;;;;;5.22;100.00;99125.22;5100845;28;20616;-75
2022/01/26 12:37:38;;;;;;;76.87;13.30;;;;;;;5.28;100.00;99127.88;5101418;28;20623;-75
2022/01/26 12:43:06;;;;;;;60.20;11.53;;;;;;;4.88;100.00;99140.16;5099985;28;20597;-74
2022/01/26 12:45:34;;;;;;;68.20;12.37;;;;;;;5.07;100.00;99143.09;5101193;28;20593;-74
2022/01/26 12:48:01;;;;;;;86.30;14.23;;;;;;;5.02;100.00;99141.00;5098455;28;20594;-74
2022/01/26 12:50:28;;;;;;;66.87;11.60;;;;;;;4.97;100.00;99142.63;5101047;28;20667;-74
2022/01/26 12:52:57;;;;;;;94.27;12.30;;;;;;;5.01;100.00;99139.41;5099391;28;20639;-74
2022/01/26 12:55:27;;;;;;;55.30;10.77;;;;;;;4.86;100.00;99142.16;5094102;28;21205;-75